EFHK

Helsinki Vantaa Airport

Helsinki, Finland
METAR EFHK 211520Z 29020KT 9999 SCT045 11/01 Q1002 NOSIG
Observed Flight Rules
Apr-21 @ 15:20 UTC (21 minutes ago) Visual Flight Rules
Wind Visibility Clouds
290° at 20 knots 10,000+ meters
  • Scattered at 4,500' AGL
Temperatures Readings
Current 11°C / 52°F
Dewpoint 1°C / 34°F
Humidity 50%
Altimeter 29.59" Hg
Pressure 1002 hPa
Elevation 56
METAR EFHK 211520Z 29020KT 9999 SCT045 11/01 Q1002 NOSIG
Observed Flight Rules
Apr-21 @ 15:20 UTC
(21 minutes ago)
VFR
Wind Visibility
290° at 20 knots 10,000+ meters
Clouds
  • Scattered at 4,500' AGL
Temperature Dewpoint
11°C / 52°F 1°C / 34°F
Humidity Altimeter Pressure
50% 29.59" Hg 1002 hPa